createdAt,value
2022-07-30T00:00:37.108Z,100840.75
2022-07-30T00:03:05.531Z,100836.13
2022-07-30T00:05:34.208Z,100835.78
2022-07-30T00:08:02.468Z,100827.00
2022-07-30T00:10:30.843Z,100827.72
2022-07-30T00:12:59.250Z,100823.28
2022-07-30T00:15:27.705Z,100829.59
2022-07-30T00:17:56.251Z,100830.34
2022-07-30T00:20:28.029Z,100820.97
2022-07-30T00:22:56.890Z,100826.94
2022-07-30T00:25:25.149Z,100815.09
2022-07-30T00:27:53.445Z,100816.19
2022-07-30T00:30:21.770Z,100811.28
2022-07-30T00:32:50.431Z,100805.94
2022-07-30T00:35:18.751Z,100816.25
2022-07-30T00:37:47.497Z,100818.13
2022-07-30T00:40:16.089Z,100816.59
2022-07-30T00:42:47.364Z,100816.03
2022-07-30T00:45:17.780Z,100813.97
2022-07-30T00:47:46.284Z,100815.75
2022-07-30T00:50:15.656Z,100813.50
2022-07-30T00:52:44.792Z,100807.44
2022-07-30T00:55:14.935Z,100810.94
2022-07-30T00:57:44.538Z,100807.69
2022-07-30T01:00:16.069Z,100803.16
2022-07-30T01:02:44.802Z,100804.00
2022-07-30T01:05:13.867Z,100806.09
2022-07-30T01:07:42.420Z,100807.31
2022-07-30T01:10:14.422Z,100806.22
2022-07-30T01:12:44.271Z,100800.63
2022-07-30T01:15:12.905Z,100806.56
2022-07-30T01:17:41.796Z,100800.53
2022-07-30T01:20:32.352Z,100800.44
2022-07-30T01:23:23.889Z,100801.47
2022-07-30T01:25:58.657Z,100805.00
2022-07-30T01:28:32.616Z,100794.53
2022-07-30T01:31:01.254Z,100795.69
2022-07-30T01:33:30.440Z,100791.06
2022-07-30T01:36:01.006Z,100787.44
2022-07-30T01:38:35.095Z,100784.97
2022-07-30T01:41:04.238Z,100779.72
2022-07-30T01:43:34.418Z,100772.03
2022-07-30T01:46:07.427Z,100764.75
2022-07-30T01:48:40.664Z,100771.50
2022-07-30T01:51:12.981Z,100770.59
2022-07-30T01:53:45.886Z,100773.63
2022-07-30T01:56:16.911Z,100767.66
2022-07-30T01:58:47.115Z,100767.41
2022-07-30T02:01:35.615Z,100765.09
2022-07-30T02:04:05.005Z,100763.84
2022-07-30T02:06:46.718Z,100771.69
2022-07-30T02:09:29.945Z,100769.22
2022-07-30T02:12:17.841Z,100775.41
2022-07-30T02:15:00.694Z,100770.53
2022-07-30T02:18:01.291Z,100766.09
2022-07-30T02:20:32.222Z,100766.34
2022-07-30T02:23:10.649Z,100766.13
2022-07-30T02:25:44.881Z,100770.16
2022-07-30T02:28:15.974Z,100775.75
2022-07-30T02:30:57.648Z,100770.91
2022-07-30T02:33:33.529Z,100771.25
2022-07-30T02:36:03.724Z,100777.97
2022-07-30T02:38:40.209Z,100783.22
2022-07-30T02:41:08.987Z,100782.06
2022-07-30T02:43:40.977Z,100777.78
2022-07-30T02:46:11.963Z,100778.56
2022-07-30T02:49:03.823Z,100785.09
2022-07-30T02:51:33.903Z,100776.59
2022-07-30T02:54:03.926Z,100786.50
2022-07-30T02:56:32.831Z,100789.97
2022-07-30T02:59:03.728Z,100788.56
2022-07-30T03:01:33.453Z,100782.06
2022-07-30T03:04:03.421Z,100783.09
2022-07-30T03:06:33.093Z,100790.00
2022-07-30T03:09:03.753Z,100784.41
2022-07-30T03:11:33.295Z,100783.59
2022-07-30T03:14:03.255Z,100785.56
2022-07-30T03:16:34.638Z,100785.78
2022-07-30T03:19:07.038Z,100790.06
2022-07-30T03:21:37.410Z,100789.59
2022-07-30T03:24:07.909Z,100784.13
2022-07-30T03:26:37.837Z,100786.22
2022-07-30T03:29:08.845Z,100791.22
2022-07-30T03:31:40.684Z,100788.78
2022-07-30T03:34:09.907Z,100793.91
2022-07-30T03:36:41.613Z,100792.25
2022-07-30T03:39:10.380Z,100797.72
2022-07-30T03:41:39.484Z,100790.50
2022-07-30T03:44:11.488Z,100795.38
2022-07-30T03:46:43.310Z,100802.50
2022-07-30T03:49:12.263Z,100815.16
2022-07-30T03:51:46.305Z,100810.75
2022-07-30T03:54:16.336Z,100807.81
2022-07-30T03:57:07.377Z,100804.56
2022-07-30T03:59:41.381Z,100809.22
2022-07-30T04:02:09.946Z,100809.91
2022-07-30T04:04:57.474Z,100805.81
2022-07-30T04:07:25.844Z,100819.16
2022-07-30T04:09:54.495Z,100823.59
2022-07-30T04:12:58.185Z,100821.03
2022-07-30T04:16:04.782Z,100833.34
2022-07-30T04:18:17.446Z,100832.03
2022-07-30T04:20:47.610Z,100837.16
2022-07-30T04:23:16.502Z,100845.06
2022-07-30T04:25:45.717Z,100844.25
2022-07-30T04:28:14.661Z,100846.56
2022-07-30T04:30:42.987Z,100850.38
2022-07-30T04:33:11.344Z,100851.53
2022-07-30T04:35:59.075Z,100848.94
2022-07-30T04:38:33.392Z,100844.66
2022-07-30T04:41:02.011Z,100851.66
2022-07-30T04:43:34.928Z,100855.28
2022-07-30T04:46:03.906Z,100850.16
2022-07-30T04:48:32.473Z,100849.91
2022-07-30T04:51:35.010Z,100844.72
2022-07-30T04:54:15.326Z,100849.28
2022-07-30T04:56:53.233Z,100858.09
2022-07-30T04:59:25.083Z,100855.44
2022-07-30T05:01:53.808Z,100851.06
2022-07-30T05:04:24.293Z,100854.75
2022-07-30T05:06:56.081Z,100859.31
2022-07-30T05:09:24.905Z,100867.81
2022-07-30T05:11:55.094Z,100857.13
2022-07-30T05:14:24.238Z,100860.84
2022-07-30T05:16:53.470Z,100866.91
2022-07-30T05:19:23.550Z,100860.16
2022-07-30T05:21:52.059Z,100858.31
2022-07-30T05:24:20.486Z,100872.41
2022-07-30T05:26:58.230Z,100876.47
2022-07-30T05:29:30.241Z,100866.50
2022-07-30T05:32:08.832Z,100866.03
2022-07-30T05:34:38.434Z,100878.81
2022-07-30T05:37:09.824Z,100883.72
2022-07-30T05:39:57.168Z,100885.38
2022-07-30T05:42:46.944Z,100885.41
2022-07-30T05:45:15.202Z,100894.03
2022-07-30T05:47:44.447Z,100889.50
2022-07-30T05:50:12.954Z,100887.19
2022-07-30T05:52:42.226Z,100888.94
2022-07-30T05:55:30.383Z,100893.09
2022-07-30T05:58:16.164Z,100888.72
2022-07-30T06:00:44.439Z,100887.31
2022-07-30T06:03:13.743Z,100893.72
2022-07-30T06:06:14.218Z,100886.28
2022-07-30T06:08:44.075Z,100889.53
2022-07-30T06:11:12.380Z,100888.59
2022-07-30T06:13:42.031Z,100889.72
2022-07-30T06:16:10.503Z,100889.84
2022-07-30T06:18:40.117Z,100891.25
2022-07-30T06:21:16.115Z,100890.44
2022-07-30T06:24:07.407Z,100896.84
2022-07-30T06:26:46.735Z,100893.31
2022-07-30T06:29:15.892Z,100895.63
2022-07-30T06:31:44.324Z,100895.00
2022-07-30T06:34:14.172Z,100892.44
2022-07-30T06:36:44.381Z,100898.22
2022-07-30T06:39:57.446Z,100898.06
2022-07-30T06:42:27.071Z,100914.81
2022-07-30T06:45:14.040Z,100905.00
2022-07-30T06:48:16.871Z,100907.41
2022-07-30T06:50:45.565Z,100905.53
2022-07-30T06:53:14.003Z,100905.44
2022-07-30T06:56:00.749Z,100900.63
2022-07-30T06:58:36.513Z,100900.38
2022-07-30T07:01:24.964Z,100898.50
2022-07-30T07:03:55.024Z,100899.28
2022-07-30T07:06:23.393Z,100902.66
2022-07-30T07:08:51.659Z,100897.16
2022-07-30T07:11:27.681Z,100907.28
2022-07-30T07:14:04.304Z,100902.22
2022-07-30T07:16:36.349Z,100899.88
2022-07-30T07:19:59.990Z,100904.84
2022-07-30T07:22:12.674Z,100910.59
2022-07-30T07:24:43.420Z,100911.19
2022-07-30T07:27:15.905Z,100913.84
2022-07-30T07:30:01.374Z,100909.09
2022-07-30T07:32:36.761Z,100908.81
2022-07-30T07:35:07.196Z,100908.16
2022-07-30T07:37:39.880Z,100912.22
2022-07-30T07:40:10.175Z,100906.53
2022-07-30T07:42:42.840Z,100915.84
2022-07-30T07:45:11.671Z,100919.81
2022-07-30T07:47:53.081Z,100912.78
2022-07-30T07:50:50.703Z,100911.69
2022-07-30T07:53:29.396Z,100907.38
2022-07-30T07:55:57.845Z,100914.56
2022-07-30T07:58:27.081Z,100905.53
2022-07-30T08:00:59.432Z,100912.06
2022-07-30T08:03:49.820Z,100907.41
2022-07-30T08:06:38.063Z,100901.78
2022-07-30T08:09:24.785Z,100899.69
2022-07-30T08:12:18.671Z,100907.81
2022-07-30T08:15:09.373Z,100900.31
2022-07-30T08:17:55.793Z,100899.22
2022-07-30T08:20:39.461Z,100900.88
2022-07-30T08:23:08.432Z,100900.44
2022-07-30T08:25:36.705Z,100892.63
2022-07-30T08:28:05.166Z,100880.22
2022-07-30T08:30:37.168Z,100893.47
2022-07-30T08:33:05.435Z,100882.56
2022-07-30T08:35:35.697Z,100880.38
2022-07-30T08:38:10.816Z,100886.94
2022-07-30T08:40:40.074Z,100878.69
2022-07-30T08:43:08.860Z,100871.69
2022-07-30T08:45:38.543Z,100877.22
2022-07-30T08:48:27.903Z,100885.50
2022-07-30T08:50:57.838Z,100877.53
2022-07-30T08:53:35.992Z,100881.75
2022-07-30T08:56:06.693Z,100886.06
2022-07-30T08:58:35.491Z,100883.19
2022-07-30T09:01:06.389Z,100885.91
2022-07-30T09:03:35.422Z,100886.84
2022-07-30T09:06:05.660Z,100885.78
2022-07-30T09:08:34.218Z,100890.22
2022-07-30T09:11:02.767Z,100884.63
2022-07-30T09:13:37.669Z,100884.72
2022-07-30T09:16:07.910Z,100886.50
2022-07-30T09:18:44.294Z,100893.78
2022-07-30T09:21:29.050Z,100890.50
2022-07-30T09:24:14.216Z,100884.16
2022-07-30T09:27:07.105Z,100878.38
2022-07-30T09:29:59.435Z,100899.81
2022-07-30T09:32:51.857Z,100893.38
2022-07-30T09:35:44.226Z,100892.19
2022-07-30T09:38:13.056Z,100897.44
2022-07-30T09:41:00.162Z,100890.25
2022-07-30T09:43:52.955Z,100892.34
2022-07-30T09:46:51.466Z,100889.06
2022-07-30T09:49:41.824Z,100889.34
2022-07-30T09:52:29.345Z,100892.66
2022-07-30T09:54:57.988Z,100885.44
2022-07-30T09:57:29.896Z,100890.47
2022-07-30T10:00:26.384Z,100889.53
2022-07-30T10:03:33.956Z,100896.72
2022-07-30T10:06:38.209Z,100895.41
2022-07-30T10:09:33.038Z,100896.81
2022-07-30T10:12:10.685Z,100897.16
2022-07-30T10:14:46.666Z,100893.16
2022-07-30T10:17:18.996Z,100884.78
2022-07-30T10:20:08.934Z,100871.63
2022-07-30T10:23:07.803Z,100886.75
2022-07-30T10:25:49.532Z,100888.16
2022-07-30T10:28:43.429Z,100877.38
2022-07-30T10:31:49.127Z,100879.56
2022-07-30T10:34:00.470Z,100879.00
2022-07-30T10:36:29.594Z,100884.31
2022-07-30T10:38:59.390Z,100871.22
2022-07-30T10:42:22.284Z,100871.31
2022-07-30T10:45:46.429Z,100882.22
2022-07-30T10:48:19.891Z,100874.59
2022-07-30T10:50:57.177Z,100875.69
2022-07-30T10:53:46.675Z,100866.28
2022-07-30T10:56:25.837Z,100867.75
2022-07-30T10:59:12.682Z,100871.03
2022-07-30T11:01:53.368Z,100868.38
2022-07-30T11:04:25.717Z,100861.00
2022-07-30T11:07:23.894Z,68092.72
2022-07-30T11:10:05.449Z,100870.63
2022-07-30T11:12:52.754Z,100868.09
2022-07-30T11:15:22.253Z,100868.09
2022-07-30T11:18:12.368Z,68092.72
2022-07-30T11:20:48.258Z,100856.81
2022-07-30T11:23:19.246Z,68092.72
2022-07-30T11:25:51.370Z,68092.72
2022-07-30T11:28:49.205Z,68092.72
2022-07-30T11:31:55.115Z,68092.72
2022-07-30T11:34:25.937Z,68092.72
2022-07-30T11:37:22.262Z,68092.72
2022-07-30T11:40:00.547Z,68092.72
2022-07-30T11:42:34.831Z,68092.72
2022-07-30T11:45:23.310Z,68092.72
2022-07-30T11:47:56.171Z,100873.00
2022-07-30T11:50:43.944Z,100862.47
2022-07-30T11:53:19.925Z,100866.47
2022-07-30T11:55:56.405Z,100864.97
2022-07-30T11:58:27.793Z,100863.66
2022-07-30T12:01:01.636Z,100856.66
2022-07-30T12:03:33.776Z,100861.53
2022-07-30T12:06:13.618Z,100861.88
2022-07-30T12:08:44.994Z,100861.88
2022-07-30T12:11:13.840Z,100852.25
2022-07-30T12:13:46.174Z,100849.19
2022-07-30T12:16:17.856Z,100857.97
2022-07-30T12:18:47.659Z,68092.72
2022-07-30T12:21:40.579Z,100857.97
2022-07-30T12:24:11.581Z,68092.72
2022-07-30T12:26:39.966Z,68092.72
2022-07-30T12:29:11.622Z,68092.72
2022-07-30T12:31:40.880Z,100852.59
2022-07-30T12:34:26.883Z,100852.44
2022-07-30T12:36:55.420Z,100853.47
2022-07-30T12:39:26.643Z,100852.13
2022-07-30T12:41:56.132Z,100858.47
2022-07-30T12:44:42.113Z,100852.53
2022-07-30T12:47:27.249Z,100843.00
2022-07-30T12:50:01.380Z,100841.56
2022-07-30T12:52:38.417Z,100849.25
2022-07-30T12:55:10.403Z,100845.72
2022-07-30T12:57:53.485Z,100845.53
2022-07-30T13:00:44.941Z,100845.00
2022-07-30T13:03:28.240Z,100843.00
2022-07-30T13:05:57.687Z,100843.78
2022-07-30T13:08:57.643Z,100847.59
2022-07-30T13:11:38.641Z,100846.13
2022-07-30T13:14:07.506Z,100828.16
2022-07-30T13:16:38.335Z,100834.47
2022-07-30T13:19:11.389Z,100835.22
2022-07-30T13:21:50.053Z,100837.75
2022-07-30T13:24:23.298Z,100842.09
2022-07-30T13:27:17.024Z,100842.09
2022-07-30T13:29:45.429Z,100847.00
2022-07-30T13:32:13.677Z,100841.00
2022-07-30T13:34:42.035Z,100856.44
2022-07-30T13:37:10.255Z,100849.81
2022-07-30T13:39:46.272Z,100849.66
2022-07-30T13:42:18.001Z,100846.34
2022-07-30T13:45:00.413Z,100837.53
2022-07-30T13:47:53.030Z,100840.25
2022-07-30T13:50:22.529Z,100835.88
2022-07-30T13:53:15.086Z,100850.19
2022-07-30T13:55:43.721Z,100841.78
2022-07-30T13:58:12.010Z,100845.16
2022-07-30T14:00:48.030Z,100841.38
2022-07-30T14:03:20.459Z,100840.53
2022-07-30T14:05:49.552Z,100839.84
2022-07-30T14:08:17.834Z,100834.56
2022-07-30T14:10:47.152Z,100833.16
2022-07-30T14:13:20.880Z,100839.59
2022-07-30T14:15:49.807Z,100831.97
2022-07-30T14:18:18.099Z,100836.59
2022-07-30T14:20:48.859Z,100837.22
2022-07-30T14:23:17.741Z,100828.56
2022-07-30T14:25:46.017Z,100827.16
2022-07-30T14:28:14.289Z,100827.06
2022-07-30T14:30:43.116Z,100829.72
2022-07-30T14:33:11.575Z,100826.19
2022-07-30T14:35:40.885Z,100824.00
2022-07-30T14:38:09.266Z,100817.63
2022-07-30T14:40:37.559Z,100821.97
2022-07-30T14:43:06.583Z,100818.78
2022-07-30T14:45:36.904Z,100815.81
2022-07-30T14:48:05.553Z,100816.16
2022-07-30T14:50:39.418Z,100826.72
2022-07-30T14:53:22.325Z,100824.56
2022-07-30T14:55:50.908Z,100817.81
2022-07-30T14:58:19.178Z,100820.13
2022-07-30T15:00:48.982Z,100811.41
2022-07-30T15:03:35.444Z,100818.03
2022-07-30T15:06:04.525Z,100814.00
2022-07-30T15:08:32.801Z,100807.22
2022-07-30T15:11:02.657Z,100814.34
2022-07-30T15:13:34.569Z,100813.94
2022-07-30T15:16:06.206Z,100822.56
2022-07-30T15:18:34.426Z,100815.25
2022-07-30T15:21:02.670Z,100818.84
2022-07-30T15:23:30.976Z,100819.78
2022-07-30T15:25:59.268Z,100814.81
2022-07-30T15:28:27.720Z,100809.09
2022-07-30T15:30:56.066Z,100806.72
2022-07-30T15:33:24.577Z,100804.41
2022-07-30T15:35:52.794Z,100820.41
2022-07-30T15:38:21.117Z,100814.66
2022-07-30T15:40:49.451Z,100812.81
2022-07-30T15:43:42.322Z,100812.44
2022-07-30T15:46:10.744Z,100809.25
2022-07-30T15:48:39.101Z,100812.28
2022-07-30T15:51:07.861Z,100817.91
2022-07-30T15:53:36.186Z,100811.69
2022-07-30T15:56:04.715Z,100814.91
2022-07-30T15:58:33.491Z,100819.72
2022-07-30T16:01:02.111Z,100817.78
2022-07-30T16:03:31.609Z,100815.50
2022-07-30T16:05:59.930Z,100816.66
2022-07-30T16:08:28.155Z,100819.84
2022-07-30T16:10:56.395Z,100819.03
2022-07-30T16:13:27.927Z,100815.19
2022-07-30T16:15:56.144Z,100823.97
2022-07-30T16:18:24.353Z,100836.50
2022-07-30T16:20:52.659Z,100828.31
2022-07-30T16:23:21.797Z,100817.31
2022-07-30T16:25:50.241Z,100832.47
2022-07-30T16:28:18.519Z,100825.28
2022-07-30T16:30:51.218Z,100827.63
2022-07-30T16:33:21.062Z,100829.41
2022-07-30T16:35:50.955Z,100826.38
2022-07-30T16:38:20.741Z,100826.75
2022-07-30T16:40:55.001Z,100840.34
2022-07-30T16:43:23.309Z,100825.03
2022-07-30T16:45:51.545Z,100834.97
2022-07-30T16:48:19.842Z,100841.97
2022-07-30T16:50:52.027Z,100836.50
2022-07-30T16:53:20.302Z,100847.13
2022-07-30T16:55:48.846Z,100845.28
2022-07-30T16:58:17.284Z,100851.69
2022-07-30T17:00:45.514Z,100845.56
2022-07-30T17:03:19.953Z,100852.28
2022-07-30T17:05:48.676Z,100844.97
2022-07-30T17:08:31.396Z,100846.25
2022-07-30T17:10:59.710Z,100855.69
2022-07-30T17:13:27.968Z,100852.53
2022-07-30T17:15:56.275Z,100847.47
2022-07-30T17:18:24.555Z,100853.22
2022-07-30T17:20:53.370Z,100851.44
2022-07-30T17:23:21.679Z,100852.00
2022-07-30T17:26:01.325Z,100856.06
2022-07-30T17:28:31.696Z,100851.97
2022-07-30T17:30:59.995Z,100857.47
2022-07-30T17:33:33.526Z,100859.63
2022-07-30T17:36:02.224Z,100859.41
2022-07-30T17:38:30.582Z,100862.88
2022-07-30T17:40:58.808Z,100863.22
2022-07-30T17:43:27.044Z,100867.53
2022-07-30T17:45:55.292Z,100874.78
2022-07-30T17:48:23.613Z,100871.84
2022-07-30T17:50:51.835Z,100873.03
2022-07-30T17:53:20.207Z,100885.56
2022-07-30T17:55:57.718Z,100877.41
2022-07-30T17:58:32.328Z,100889.78
2022-07-30T18:01:04.640Z,100884.47
2022-07-30T18:03:45.043Z,100895.22
2022-07-30T18:06:19.242Z,100896.66
2022-07-30T18:08:54.776Z,100901.16
2022-07-30T18:11:24.387Z,100905.09
2022-07-30T18:13:58.691Z,100895.06
2022-07-30T18:16:33.190Z,100900.03
2022-07-30T18:19:03.925Z,100906.47
2022-07-30T18:21:35.769Z,100911.06
2022-07-30T18:24:11.721Z,100911.78
2022-07-30T18:26:42.597Z,100909.94
2022-07-30T18:29:13.904Z,100911.78
2022-07-30T18:31:46.870Z,100912.75
2022-07-30T18:34:20.762Z,100912.78
2022-07-30T18:36:51.131Z,100907.75
2022-07-30T18:39:21.935Z,100909.91
2022-07-30T18:41:51.060Z,100919.97
2022-07-30T18:44:23.903Z,100925.25
2022-07-30T18:46:52.166Z,100919.28
2022-07-30T18:49:36.151Z,100916.91
2022-07-30T18:52:06.696Z,100920.53
2022-07-30T18:54:36.404Z,100918.13
2022-07-30T18:57:05.879Z,100926.66
2022-07-30T18:59:34.524Z,100924.66
2022-07-30T19:02:04.722Z,100921.84
2022-07-30T19:04:33.437Z,100925.81
2022-07-30T19:07:01.965Z,100930.69
2022-07-30T19:09:30.827Z,100935.56
2022-07-30T19:11:59.078Z,100936.34
2022-07-30T19:14:27.326Z,100949.75
2022-07-30T19:16:59.464Z,100947.47
2022-07-30T19:19:29.143Z,100947.41
2022-07-30T19:21:57.633Z,100956.28
2022-07-30T19:24:27.695Z,100953.56
2022-07-30T19:26:56.499Z,100962.03
2022-07-30T19:29:24.774Z,100960.00
2022-07-30T19:31:52.976Z,100966.81
2022-07-30T19:34:26.972Z,100966.03
2022-07-30T19:36:55.222Z,100963.97
2022-07-30T19:39:23.417Z,100968.41
2022-07-30T19:41:55.200Z,100964.75
2022-07-30T19:44:23.552Z,100979.44
2022-07-30T19:46:52.652Z,100979.56
2022-07-30T19:49:21.784Z,100981.56
2022-07-30T19:52:10.769Z,100992.06
2022-07-30T19:55:04.610Z,100994.50
2022-07-30T19:57:54.522Z,101000.66
2022-07-30T20:00:24.901Z,101001.56
2022-07-30T20:03:26.114Z,101007.16
2022-07-30T20:06:00.861Z,101000.69
2022-07-30T20:08:54.206Z,100993.78
2022-07-30T20:14:11.057Z,101002.19
2022-07-30T20:16:48.309Z,101005.38
2022-07-30T20:19:20.062Z,101004.47
2022-07-30T20:21:56.643Z,101002.03
2022-07-30T20:24:25.662Z,100998.69
2022-07-30T20:26:59.281Z,101005.97
2022-07-30T20:29:27.544Z,101004.72
2022-07-30T20:31:55.775Z,101011.44
2022-07-30T20:34:26.107Z,101021.22
2022-07-30T20:36:56.727Z,101014.00
2022-07-30T20:39:25.971Z,101023.53
2022-07-30T20:42:13.416Z,101019.22
2022-07-30T20:44:49.566Z,101022.34
2022-07-30T20:47:38.280Z,101020.19
2022-07-30T20:50:12.132Z,101022.66
2022-07-30T20:52:46.684Z,101023.47
2022-07-30T20:55:19.009Z,101024.91
2022-07-30T20:57:58.745Z,101028.28
2022-07-30T21:00:38.768Z,101030.22
2022-07-30T21:03:13.803Z,101028.56
2022-07-30T21:05:43.955Z,101025.53
2022-07-30T21:08:13.454Z,101028.19
2022-07-30T21:10:44.703Z,101031.31
2022-07-30T21:13:32.350Z,101030.50
2022-07-30T21:16:02.787Z,101027.00
2022-07-30T21:18:32.785Z,101029.38
2022-07-30T21:21:05.093Z,101024.50
2022-07-30T21:23:34.209Z,101023.38
2022-07-30T21:26:07.078Z,101024.91
2022-07-30T21:28:38.900Z,101021.69
2022-07-30T21:31:09.322Z,101017.66
2022-07-30T21:33:37.751Z,101026.03
2022-07-30T21:36:10.751Z,101030.50
2022-07-30T21:38:41.833Z,101036.91
2022-07-30T21:41:14.067Z,101027.19
2022-07-30T21:43:46.555Z,101037.19
2022-07-30T21:46:25.008Z,101031.81
2022-07-30T21:48:59.287Z,101040.31
2022-07-30T21:51:27.824Z,101043.56
2022-07-30T21:53:57.846Z,101042.25
2022-07-30T21:56:26.412Z,101034.91
2022-07-30T21:58:55.170Z,101037.19
2022-07-30T22:01:25.034Z,101031.66
2022-07-30T22:04:05.350Z,101029.63
2022-07-30T22:06:41.189Z,101027.19
2022-07-30T22:09:18.948Z,101024.47
2022-07-30T22:12:09.233Z,101027.00
2022-07-30T22:14:40.681Z,101019.78
2022-07-30T22:17:22.464Z,101025.19
2022-07-30T22:20:02.060Z,101020.44
2022-07-30T22:25:19.090Z,101017.69
2022-07-30T22:27:56.558Z,101015.31
2022-07-30T22:30:27.857Z,101008.03
2022-07-30T22:33:10.638Z,101011.25
2022-07-30T22:35:39.235Z,101008.94
2022-07-30T22:38:08.037Z,101000.25
2022-07-30T22:40:37.800Z,101002.63
2022-07-30T22:43:13.917Z,100996.56
2022-07-30T22:48:32.713Z,100990.66
2022-07-30T22:51:03.297Z,100985.31
2022-07-30T22:54:02.719Z,100983.81
2022-07-30T22:56:23.750Z,100986.19
2022-07-30T22:58:52.344Z,100983.69
2022-07-30T23:01:20.609Z,100986.69
2022-07-30T23:03:51.214Z,100984.31
2022-07-30T23:06:20.619Z,100978.56
2022-07-30T23:08:50.302Z,100986.47
2022-07-30T23:11:18.655Z,100985.38
2022-07-30T23:12:16.699Z,100999.78
2022-07-30T23:12:28.646Z,101028.31
2022-07-30T23:12:34.587Z,100991.13
2022-07-30T23:13:49.087Z,100998.94
2022-07-30T23:16:17.364Z,100990.91
2022-07-30T23:18:45.655Z,100981.94
2022-07-30T23:21:14.935Z,100988.00
2022-07-30T23:23:43.206Z,100990.31
2022-07-30T23:26:13.035Z,100988.91
2022-07-30T23:28:41.513Z,100978.34
2022-07-30T23:31:09.767Z,100984.13
2022-07-30T23:33:38.044Z,100980.78
2022-07-30T23:36:08.541Z,100976.47
2022-07-30T23:38:37.233Z,100963.19
2022-07-30T23:41:06.648Z,100962.75
2022-07-30T23:43:35.695Z,100972.34
2022-07-30T23:46:04.666Z,100961.69
2022-07-30T23:48:38.107Z,100969.25
2022-07-30T23:51:06.610Z,100963.78
2022-07-30T23:53:34.833Z,100966.97
2022-07-30T23:56:03.450Z,100967.03
2022-07-30T23:58:31.735Z,100954.91
